N436TB CYHZ-CYQM
Flight info
| Callsign | N436TB |
|---|---|
| Flight time | 0h 36m |
| Altitude | 12000 |
| Route | DCT |
| Aircraft | B36T/L-V/N |
Departure
| Time | 2026-05-05 00:26 |
|---|---|
| Airport | Halifax / Stanfield International Airport (CYHZ) |
Arrival
| Time | 2026-05-05 01:03 |
|---|---|
| Airport | Greater Moncton Roméo LeBlanc International Airport (CYQM) |
| Time | Latitude | Longitude | Altitude | Speed | Heading |
|---|---|---|---|---|---|
| 2026-05-05 00:05 | 44.88421 | -63.51337 | 452 ft | 0 kts | 10° |
| 2026-05-05 00:20 | 44.88419 | -63.51292 | 457 ft | 15 kts | 111° |
| 2026-05-05 00:20 | 44.88433 | -63.51229 | 452 ft | 7 kts | 14° |
| 2026-05-05 00:20 | 44.88477 | -63.51223 | 452 ft | 5 kts | 357° |
| 2026-05-05 00:21 | 44.88541 | -63.51230 | 452 ft | 15 kts | 353° |
| 2026-05-05 00:21 | 44.88636 | -63.51251 | 451 ft | 17 kts | 351° |
| 2026-05-05 00:21 | 44.88698 | -63.51152 | 451 ft | 18 kts | 80° |
| 2026-05-05 00:21 | 44.88720 | -63.50981 | 451 ft | 15 kts | 82° |
| 2026-05-05 00:22 | 44.88697 | -63.50859 | 452 ft | 11 kts | 127° |
| 2026-05-05 00:22 | 44.88677 | -63.50819 | 452 ft | 0 kts | 122° |
| 2026-05-05 00:25 | 44.88626 | -63.50725 | 454 ft | 17 kts | 144° |
| 2026-05-05 00:25 | 44.88592 | -63.50732 | 454 ft | 9 kts | 205° |
| 2026-05-05 00:25 | 44.88576 | -63.50745 | 454 ft | 0 kts | 213° |
| 2026-05-05 00:26 | 44.88283 | -63.51026 | 550 ft | 96 kts | 214° |
| 2026-05-05 00:26 | 44.87604 | -63.51684 | 1095 ft | 134 kts | 216° |
| 2026-05-05 00:27 | 44.86765 | -63.52380 | 1694 ft | 141 kts | 217° |
| 2026-05-05 00:27 | 44.85886 | -63.52961 | 2235 ft | 139 kts | 214° |
| 2026-05-05 00:27 | 44.85001 | -63.53495 | 2756 ft | 139 kts | 215° |
| 2026-05-05 00:27 | 44.84250 | -63.54183 | 3249 ft | 118 kts | 249° |
| 2026-05-05 00:28 | 44.84285 | -63.55270 | 3782 ft | 114 kts | 281° |
| 2026-05-05 00:28 | 44.84665 | -63.56283 | 4292 ft | 122 kts | 296° |
| 2026-05-05 00:28 | 44.85185 | -63.57225 | 4806 ft | 121 kts | 296° |
| 2026-05-05 00:28 | 44.85688 | -63.58172 | 5317 ft | 120 kts | 294° |
| 2026-05-05 00:29 | 44.86164 | -63.59148 | 5849 ft | 121 kts | 293° |
| 2026-05-05 00:29 | 44.86624 | -63.60132 | 6357 ft | 120 kts | 293° |
| 2026-05-05 00:29 | 44.87078 | -63.61117 | 7029 ft | 120 kts | 293° |
| 2026-05-05 00:29 | 44.87523 | -63.62088 | 7778 ft | 116 kts | 293° |
| 2026-05-05 00:30 | 44.87957 | -63.63038 | 8543 ft | 114 kts | 292° |
| 2026-05-05 00:30 | 44.88381 | -63.63971 | 9326 ft | 112 kts | 292° |
| 2026-05-05 00:30 | 44.88800 | -63.64889 | 10086 ft | 110 kts | 292° |
| 2026-05-05 00:30 | 44.89206 | -63.65779 | 10804 ft | 108 kts | 292° |
| 2026-05-05 00:31 | 44.89609 | -63.66670 | 11552 ft | 107 kts | 291° |
| 2026-05-05 00:31 | 44.90022 | -63.67603 | 12006 ft | 126 kts | 292° |
| 2026-05-05 00:31 | 44.90579 | -63.68730 | 12019 ft | 155 kts | 305° |
| 2026-05-05 00:31 | 44.91695 | -63.69314 | 12020 ft | 188 kts | 338° |
| 2026-05-05 00:32 | 44.93019 | -63.69445 | 12017 ft | 191 kts | 341° |
| 2026-05-05 00:32 | 44.94354 | -63.69554 | 12013 ft | 192 kts | 341° |
| 2026-05-05 00:32 | 44.95624 | -63.69850 | 12016 ft | 172 kts | 320° |
| 2026-05-05 00:32 | 44.96590 | -63.70753 | 12017 ft | 168 kts | 315° |
| 2026-05-05 00:33 | 44.97649 | -63.71535 | 12013 ft | 176 kts | 321° |
| 2026-05-05 00:33 | 44.98796 | -63.72252 | 12022 ft | 184 kts | 323° |
| 2026-05-05 00:33 | 44.99987 | -63.72959 | 12012 ft | 187 kts | 323° |
| 2026-05-05 00:33 | 45.01192 | -63.73676 | 12016 ft | 188 kts | 323° |
| 2026-05-05 00:34 | 45.02402 | -63.74389 | 12003 ft | 188 kts | 324° |
| 2026-05-05 00:34 | 45.03614 | -63.75096 | 12007 ft | 188 kts | 324° |
| 2026-05-05 00:34 | 45.04824 | -63.75801 | 12001 ft | 188 kts | 324° |
| 2026-05-05 00:34 | 45.06034 | -63.76507 | 12007 ft | 188 kts | 324° |
| 2026-05-05 00:35 | 45.07246 | -63.77215 | 12003 ft | 188 kts | 324° |
| 2026-05-05 00:35 | 45.08456 | -63.77922 | 12001 ft | 188 kts | 324° |
| 2026-05-05 00:35 | 45.09665 | -63.78628 | 12005 ft | 188 kts | 324° |
| 2026-05-05 00:35 | 45.10854 | -63.79333 | 12008 ft | 187 kts | 323° |
| 2026-05-05 00:36 | 45.12023 | -63.80119 | 12003 ft | 186 kts | 322° |
| 2026-05-05 00:36 | 45.13210 | -63.80876 | 12000 ft | 189 kts | 323° |
| 2026-05-05 00:36 | 45.14402 | -63.81636 | 11997 ft | 187 kts | 321° |
| 2026-05-05 00:36 | 45.15582 | -63.82415 | 11997 ft | 188 kts | 323° |
| 2026-05-05 00:37 | 45.16788 | -63.83156 | 11998 ft | 190 kts | 324° |
| 2026-05-05 00:37 | 45.18016 | -63.83890 | 11999 ft | 191 kts | 324° |
| 2026-05-05 00:37 | 45.19240 | -63.84621 | 11999 ft | 190 kts | 324° |
| 2026-05-05 00:37 | 45.20459 | -63.85355 | 12000 ft | 190 kts | 324° |
| 2026-05-05 00:38 | 45.21675 | -63.86088 | 11997 ft | 189 kts | 324° |
| 2026-05-05 00:38 | 45.22890 | -63.86820 | 11995 ft | 190 kts | 324° |
| 2026-05-05 00:38 | 45.24102 | -63.87550 | 11993 ft | 189 kts | 324° |
| 2026-05-05 00:38 | 45.25301 | -63.88274 | 11992 ft | 189 kts | 324° |
| 2026-05-05 00:39 | 45.26514 | -63.89007 | 11990 ft | 189 kts | 324° |
| 2026-05-05 00:39 | 45.27728 | -63.89740 | 11990 ft | 189 kts | 324° |
| 2026-05-05 00:39 | 45.28942 | -63.90474 | 11990 ft | 189 kts | 324° |
| 2026-05-05 00:39 | 45.30154 | -63.91206 | 11989 ft | 189 kts | 324° |
| 2026-05-05 00:40 | 45.31366 | -63.91939 | 11992 ft | 189 kts | 324° |
| 2026-05-05 00:40 | 45.32579 | -63.92672 | 11986 ft | 189 kts | 324° |
| 2026-05-05 00:40 | 45.33789 | -63.93406 | 11981 ft | 189 kts | 324° |
| 2026-05-05 00:40 | 45.34998 | -63.94138 | 11981 ft | 189 kts | 324° |
| 2026-05-05 00:41 | 45.36210 | -63.94871 | 11982 ft | 189 kts | 324° |
| 2026-05-05 00:41 | 45.37405 | -63.95596 | 11982 ft | 189 kts | 324° |
| 2026-05-05 00:41 | 45.38620 | -63.96331 | 11982 ft | 189 kts | 324° |
| 2026-05-05 00:41 | 45.39829 | -63.97066 | 11983 ft | 189 kts | 324° |
| 2026-05-05 00:42 | 45.41037 | -63.97798 | 11988 ft | 189 kts | 324° |
| 2026-05-05 00:42 | 45.42248 | -63.98534 | 11983 ft | 189 kts | 324° |
| 2026-05-05 00:42 | 45.43457 | -63.99269 | 11972 ft | 189 kts | 324° |
| 2026-05-05 00:42 | 45.44665 | -64.00004 | 11974 ft | 189 kts | 324° |
| 2026-05-05 00:43 | 45.45876 | -64.00720 | 11969 ft | 187 kts | 326° |
| 2026-05-05 00:43 | 45.47068 | -64.01453 | 11971 ft | 186 kts | 323° |
| 2026-05-05 00:43 | 45.48260 | -64.02198 | 11972 ft | 188 kts | 324° |
| 2026-05-05 00:43 | 45.49464 | -64.02931 | 11972 ft | 188 kts | 324° |
| 2026-05-05 00:44 | 45.50662 | -64.03679 | 11975 ft | 188 kts | 324° |
| 2026-05-05 00:44 | 45.51859 | -64.04432 | 11976 ft | 188 kts | 324° |
| 2026-05-05 00:44 | 45.53059 | -64.05185 | 11977 ft | 188 kts | 324° |
| 2026-05-05 00:44 | 45.54258 | -64.05941 | 11963 ft | 188 kts | 324° |
| 2026-05-05 00:45 | 45.55439 | -64.06686 | 11960 ft | 188 kts | 324° |
| 2026-05-05 00:45 | 45.56633 | -64.07440 | 11960 ft | 188 kts | 324° |
| 2026-05-05 00:45 | 45.57830 | -64.08195 | 11961 ft | 188 kts | 324° |
| 2026-05-05 00:45 | 45.59026 | -64.08949 | 11960 ft | 188 kts | 324° |
| 2026-05-05 00:46 | 45.60227 | -64.09706 | 11963 ft | 188 kts | 324° |
| 2026-05-05 00:46 | 45.61427 | -64.10462 | 11963 ft | 188 kts | 324° |
| 2026-05-05 00:46 | 45.62625 | -64.11219 | 11963 ft | 188 kts | 324° |
| 2026-05-05 00:46 | 45.63825 | -64.11978 | 11964 ft | 189 kts | 324° |
| 2026-05-05 00:47 | 45.65029 | -64.12754 | 11963 ft | 189 kts | 324° |
| 2026-05-05 00:47 | 45.66223 | -64.13539 | 11954 ft | 189 kts | 324° |
| 2026-05-05 00:47 | 45.67417 | -64.14331 | 11873 ft | 191 kts | 324° |
| 2026-05-05 00:47 | 45.68642 | -64.15151 | 11615 ft | 196 kts | 324° |
| 2026-05-05 00:48 | 45.69862 | -64.15981 | 11403 ft | 196 kts | 324° |
| 2026-05-05 00:48 | 45.71092 | -64.16821 | 11197 ft | 196 kts | 324° |
| 2026-05-05 00:48 | 45.72323 | -64.17663 | 10993 ft | 196 kts | 324° |
| 2026-05-05 00:48 | 45.73552 | -64.18508 | 10791 ft | 196 kts | 324° |
| 2026-05-05 00:49 | 45.74773 | -64.19347 | 10583 ft | 189 kts | 324° |
| 2026-05-05 00:49 | 45.75925 | -64.20102 | 10374 ft | 175 kts | 324° |
| 2026-05-05 00:49 | 45.77011 | -64.20790 | 10174 ft | 168 kts | 324° |
| 2026-05-05 00:49 | 45.78072 | -64.21457 | 9996 ft | 165 kts | 324° |
| 2026-05-05 00:50 | 45.79122 | -64.22114 | 9818 ft | 164 kts | 324° |
| 2026-05-05 00:50 | 45.80167 | -64.22768 | 9641 ft | 164 kts | 324° |
| 2026-05-05 00:50 | 45.81034 | -64.23229 | 9420 ft | 103 kts | 325° |
| 2026-05-05 00:50 | 45.81636 | -64.23433 | 9126 ft | 80 kts | 324° |
| 2026-05-05 00:51 | 45.82166 | -64.23574 | 8752 ft | 75 kts | 324° |
| 2026-05-05 00:51 | 45.82661 | -64.23697 | 8401 ft | 71 kts | 324° |
| 2026-05-05 00:51 | 45.83155 | -64.23834 | 8082 ft | 86 kts | 323° |
| 2026-05-05 00:51 | 45.83907 | -64.24260 | 7896 ft | 136 kts | 325° |
| 2026-05-05 00:52 | 45.84833 | -64.24827 | 7678 ft | 150 kts | 325° |
| 2026-05-05 00:52 | 45.85808 | -64.25454 | 7425 ft | 155 kts | 324° |
| 2026-05-05 00:52 | 45.86792 | -64.26106 | 7144 ft | 156 kts | 324° |
| 2026-05-05 00:52 | 45.87777 | -64.26770 | 6857 ft | 157 kts | 324° |
| 2026-05-05 00:53 | 45.88766 | -64.27448 | 6566 ft | 158 kts | 324° |
| 2026-05-05 00:53 | 45.89752 | -64.28137 | 6268 ft | 158 kts | 324° |
| 2026-05-05 00:53 | 45.90739 | -64.28835 | 5969 ft | 158 kts | 324° |
| 2026-05-05 00:53 | 45.91722 | -64.29531 | 5651 ft | 157 kts | 324° |
| 2026-05-05 00:54 | 45.92699 | -64.30234 | 5338 ft | 157 kts | 324° |
| 2026-05-05 00:54 | 45.93674 | -64.30948 | 5028 ft | 157 kts | 326° |
| 2026-05-05 00:54 | 45.94642 | -64.31670 | 4718 ft | 156 kts | 323° |
| 2026-05-05 00:54 | 45.95599 | -64.32407 | 4410 ft | 155 kts | 323° |
| 2026-05-05 00:55 | 45.96558 | -64.33147 | 4164 ft | 173 kts | 322° |
| 2026-05-05 00:55 | 45.97640 | -64.34048 | 4010 ft | 179 kts | 323° |
| 2026-05-05 00:55 | 45.98704 | -64.34933 | 4012 ft | 175 kts | 323° |
| 2026-05-05 00:55 | 45.99759 | -64.35805 | 4013 ft | 174 kts | 323° |
| 2026-05-05 00:56 | 46.00812 | -64.36676 | 4010 ft | 175 kts | 322° |
| 2026-05-05 00:56 | 46.01872 | -64.37546 | 4010 ft | 175 kts | 323° |
| 2026-05-05 00:56 | 46.02918 | -64.38406 | 4059 ft | 172 kts | 321° |
| 2026-05-05 00:56 | 46.03909 | -64.39313 | 3996 ft | 167 kts | 319° |
| 2026-05-05 00:57 | 46.04852 | -64.40266 | 3928 ft | 164 kts | 318° |
| 2026-05-05 00:57 | 46.05821 | -64.41092 | 4046 ft | 162 kts | 322° |
| 2026-05-05 00:57 | 46.06820 | -64.41870 | 4064 ft | 165 kts | 324° |
| 2026-05-05 00:57 | 46.07863 | -64.42612 | 3994 ft | 168 kts | 325° |
| 2026-05-05 00:58 | 46.08886 | -64.43370 | 3975 ft | 166 kts | 322° |
| 2026-05-05 00:58 | 46.09781 | -64.44359 | 3889 ft | 156 kts | 308° |
| 2026-05-05 00:58 | 46.10458 | -64.45545 | 3665 ft | 151 kts | 300° |
| 2026-05-05 00:58 | 46.10976 | -64.46838 | 3394 ft | 150 kts | 291° |
| 2026-05-05 00:59 | 46.11200 | -64.48252 | 3228 ft | 145 kts | 272° |
| 2026-05-05 00:59 | 46.11234 | -64.49685 | 3126 ft | 143 kts | 272° |
| 2026-05-05 00:59 | 46.11250 | -64.51157 | 2798 ft | 144 kts | 272° |
| 2026-05-05 00:59 | 46.11202 | -64.52577 | 2676 ft | 142 kts | 264° |
| 2026-05-05 01:00 | 46.11081 | -64.53997 | 2370 ft | 135 kts | 269° |
| 2026-05-05 01:00 | 46.11077 | -64.55255 | 2075 ft | 119 kts | 271° |
| 2026-05-05 01:00 | 46.11043 | -64.56430 | 1834 ft | 116 kts | 269° |
| 2026-05-05 01:00 | 46.11047 | -64.57611 | 1740 ft | 120 kts | 270° |
| 2026-05-05 01:01 | 46.11011 | -64.58801 | 1753 ft | 123 kts | 264° |
| 2026-05-05 01:01 | 46.10943 | -64.59997 | 1632 ft | 107 kts | 270° |
| 2026-05-05 01:01 | 46.10938 | -64.60980 | 1351 ft | 97 kts | 271° |
| 2026-05-05 01:01 | 46.10921 | -64.61953 | 1103 ft | 97 kts | 270° |
| 2026-05-05 01:02 | 46.10872 | -64.62958 | 859 ft | 101 kts | 269° |
| 2026-05-05 01:02 | 46.10845 | -64.63973 | 663 ft | 102 kts | 268° |
| 2026-05-05 01:02 | 46.10842 | -64.64967 | 619 ft | 98 kts | 266° |
| 2026-05-05 01:02 | 46.10808 | -64.65861 | 390 ft | 80 kts | 263° |
| 2026-05-05 01:03 | 46.10776 | -64.66619 | 225 ft | 65 kts | 262° |
| 2026-05-05 01:03 | 46.10749 | -64.67160 | 210 ft | 46 kts | 266° |
| 2026-05-05 01:03 | 46.10737 | -64.67455 | 208 ft | 23 kts | 262° |
| 2026-05-05 01:03 | 46.10734 | -64.67717 | 207 ft | 26 kts | 257° |
| 2026-05-05 01:04 | 46.10596 | -64.67745 | 210 ft | 23 kts | 148° |
| 2026-05-05 01:04 | 46.10569 | -64.67291 | 208 ft | 25 kts | 137° |
| 2026-05-05 01:04 | 46.10516 | -64.67305 | 208 ft | 0 kts | 269° |